Time;durP1;ratioP1;P1;durP2;ratioP2;P2;SDS_P1;SDS_P2;PMS_P1;PMS_P2;Temp;Humidity;BMP_temperature;BMP_pressure;BME280_temperature;BME280_humidity;BME280_pressure;Samples;Min_cycle;Max_cycle;Signal;HPM_P1;HPM_P2
2023/07/07 00:01:40;;;;;;;0.10;0.10;;;;;;;16.52;100.00;99377.34;5093450;28;20196;-78
2023/07/07 00:04:09;;;;;;;0.10;0.10;;;;;;;16.50;100.00;99370.41;5094364;28;20245;-78
2023/07/07 00:06:38;;;;;;;0.10;0.10;;;;;;;16.57;100.00;99371.59;5091505;28;20200;-78
2023/07/07 00:09:07;;;;;;;0.10;0.10;;;;;;;16.49;100.00;99371.38;5090218;28;20643;-78
2023/07/07 00:11:37;;;;;;;0.10;0.10;;;;;;;16.44;100.00;99366.44;5096953;27;20278;-78
2023/07/07 00:14:06;;;;;;;0.10;0.10;;;;;;;16.26;100.00;99363.50;5094297;28;20678;-78
2023/07/07 00:16:38;;;;;;;0.10;0.10;;;;;;;16.26;100.00;99371.50;5088593;28;20270;-78
2023/07/07 00:19:09;;;;;;;0.10;0.10;;;;;;;16.05;100.00;99377.81;5083395;28;20204;-78
2023/07/07 00:21:40;;;;;;;0.10;0.10;;;;;;;16.14;100.00;99363.69;5086923;28;20280;-78
2023/07/07 00:24:09;;;;;;;0.10;0.10;;;;;;;16.21;100.00;99381.75;5030600;28;20193;-79
2023/07/07 00:26:41;;;;;;;0.10;0.10;;;;;;;16.08;100.00;99375.72;4988473;28;20206;-79
2023/07/07 00:29:10;;;;;;;0.10;0.10;;;;;;;16.00;100.00;99380.84;4988829;28;20223;-79
2023/07/07 00:31:39;;;;;;;0.00;0.00;;;;;;;15.85;100.00;99374.13;4984368;28;20278;-79
2023/07/07 00:34:07;;;;;;;0.10;0.10;;;;;;;15.85;100.00;99374.97;4984831;28;20223;-79
2023/07/07 00:36:35;;;;;;;0.10;0.10;;;;;;;15.60;100.00;99373.44;4989315;28;20199;-78
2023/07/07 00:39:04;;;;;;;0.10;0.10;;;;;;;15.44;100.00;99371.16;4981525;28;20221;-79
2023/07/07 00:41:33;;;;;;;0.10;0.10;;;;;;;15.45;100.00;99374.66;4986288;28;20241;-79
2023/07/07 00:44:06;;;;;;;0.10;0.10;;;;;;;15.27;100.00;99379.66;4989851;28;20201;-79
2023/07/07 00:46:35;;;;;;;0.10;0.10;;;;;;;15.23;100.00;99382.69;4986483;28;20202;-79
2023/07/07 00:49:06;;;;;;;0.10;0.10;;;;;;;15.22;100.00;99378.31;5041250;28;20203;-78
2023/07/07 00:51:39;;;;;;;0.10;0.10;;;;;;;15.03;100.00;99379.78;5079301;28;20199;-79
2023/07/07 00:54:14;;;;;;;0.10;0.10;;;;;;;15.09;100.00;99376.63;5091022;28;20238;-79
2023/07/07 00:56:47;;;;;;;0.10;0.10;;;;;;;14.96;100.00;99386.56;5093203;28;20228;-78
2023/07/07 00:59:21;;;;;;;0.10;0.10;;;;;;;14.94;100.00;99390.31;5090073;28;20246;-79
2023/07/07 01:01:56;;;;;;;0.10;0.10;;;;;;;14.89;100.00;99386.19;5011357;28;20601;-79
2023/07/07 01:04:27;;;;;;;0.10;0.10;;;;;;;14.83;100.00;99391.16;5002909;28;20204;-78
2023/07/07 01:07:03;;;;;;;0.10;0.10;;;;;;;14.81;100.00;99383.28;5007210;28;20207;-79
2023/07/07 01:09:31;;;;;;;0.10;0.10;;;;;;;14.60;100.00;99388.47;5007578;28;20684;-79
2023/07/07 01:12:01;;;;;;;0.10;0.10;;;;;;;14.78;100.00;99386.19;5001761;28;20207;-78
2023/07/07 01:14:32;;;;;;;0.10;0.10;;;;;;;14.62;100.00;99390.16;5007807;28;20218;-79
2023/07/07 01:17:22;;;;;;;0.10;0.10;;;;;;;14.40;100.00;99388.25;5008971;28;20197;-79
2023/07/07 01:20:14;;;;;;;0.10;0.10;;;;;;;14.54;100.00;99388.06;5040713;28;20207;-78
2023/07/07 01:23:21;;;;;;;0.10;0.10;;;;;;;14.58;100.00;99395.72;5089069;28;20183;-78
2023/07/07 01:26:14;;;;;;;0.10;0.10;;;;;;;14.51;100.00;99394.50;5063843;28;20195;-79
2023/07/07 01:29:13;;;;;;;0.10;0.10;;;;;;;14.45;100.00;99391.44;5090973;28;20216;-79
2023/07/07 01:31:49;;;;;;;0.10;0.10;;;;;;;14.48;100.00;99376.09;5089632;28;20191;-79
2023/07/07 01:34:20;;;;;;;0.10;0.10;;;;;;;14.42;100.00;99381.00;5092389;28;20226;-79
2023/07/07 01:36:49;;;;;;;0.10;0.10;;;;;;;14.50;100.00;99387.47;5045288;28;20674;-79
2023/07/07 01:39:19;;;;;;;0.10;0.10;;;;;;;14.40;100.00;99382.94;5045746;28;20280;-78
2023/07/07 01:41:53;;;;;;;0.10;0.10;;;;;;;14.25;100.00;99380.44;4953437;28;20210;-79
2023/07/07 01:44:31;;;;;;;0.10;0.10;;;;;;;14.25;100.00;99388.44;4971755;28;20702;-79
2023/07/07 01:47:10;;;;;;;0.10;0.10;;;;;;;14.18;100.00;99389.00;4910124;29;20300;-79
2023/07/07 01:49:47;;;;;;;0.10;0.10;;;;;;;14.31;100.00;99387.13;4906394;29;20202;-79
2023/07/07 01:52:23;;;;;;;0.10;0.10;;;;;;;14.30;100.00;99388.09;4907634;29;20202;-79
2023/07/07 01:54:58;;;;;;;0.10;0.10;;;;;;;14.14;100.00;99388.41;4931419;28;20714;-78
2023/07/07 01:57:29;;;;;;;0.10;0.10;;;;;;;14.10;100.00;99388.75;4970370;28;20642;-79
2023/07/07 02:00:00;;;;;;;0.10;0.10;;;;;;;14.10;100.00;99392.25;5007362;28;20280;-78
2023/07/07 02:02:30;;;;;;;0.13;0.13;;;;;;;13.98;100.00;99394.00;5041288;28;20226;-78
2023/07/07 02:05:01;;;;;;;0.10;0.10;;;;;;;13.99;100.00;99385.09;5048216;28;20197;-78
2023/07/07 02:07:30;;;;;;;0.10;0.10;;;;;;;13.97;100.00;99394.13;5050152;28;20193;-78
2023/07/07 02:09:59;;;;;;;0.10;0.10;;;;;;;13.91;100.00;99389.28;5045651;28;20225;-79
2023/07/07 02:12:27;;;;;;;0.10;0.10;;;;;;;13.68;100.00;99396.25;5074005;28;20199;-79
2023/07/07 02:14:55;;;;;;;0.10;0.10;;;;;;;13.66;100.00;99400.84;5087694;28;20224;-78
2023/07/07 02:17:24;;;;;;;0.10;0.10;;;;;;;13.74;100.00;99395.84;5086783;28;20196;-79
2023/07/07 02:19:54;;;;;;;0.10;0.10;;;;;;;13.67;100.00;99391.91;5090418;28;20243;-79
2023/07/07 02:22:23;;;;;;;0.10;0.10;;;;;;;13.72;100.00;99393.28;5090100;28;20279;-79
2023/07/07 02:24:53;;;;;;;0.10;0.10;;;;;;;13.82;100.00;99398.78;5092687;28;20234;-78
2023/07/07 02:27:21;;;;;;;0.10;0.10;;;;;;;13.82;100.00;99398.78;5093551;28;20210;-79
2023/07/07 02:29:50;;;;;;;0.10;0.10;;;;;;;13.87;100.00;99401.09;5094395;28;20451;-79
2023/07/07 02:32:18;;;;;;;0.10;0.10;;;;;;;13.84;100.00;99404.84;5091918;28;20206;-79
2023/07/07 02:34:48;;;;;;;0.10;0.10;;;;;;;13.77;100.00;99402.75;5091288;28;20216;-79
2023/07/07 02:37:19;;;;;;;0.10;0.10;;;;;;;13.72;100.00;99395.09;5097698;28;20202;-79
2023/07/07 02:39:48;;;;;;;0.10;0.10;;;;;;;13.75;100.00;99405.50;5095042;28;20230;-79
2023/07/07 02:42:17;;;;;;;0.10;0.10;;;;;;;13.57;100.00;99407.69;5092229;28;20203;-79
2023/07/07 02:44:45;;;;;;;0.10;0.10;;;;;;;13.65;100.00;99405.34;5094096;28;20194;-79
2023/07/07 02:47:14;;;;;;;0.10;0.10;;;;;;;13.61;100.00;99400.38;5092245;28;20183;-78
2023/07/07 02:49:43;;;;;;;0.10;0.10;;;;;;;13.59;100.00;99403.09;5094607;28;20203;-78
2023/07/07 02:52:11;;;;;;;0.10;0.10;;;;;;;13.47;100.00;99404.00;5088806;28;20296;-79
2023/07/07 02:54:41;;;;;;;0.10;0.10;;;;;;;13.57;100.00;99405.03;5088133;28;20306;-78
2023/07/07 02:57:10;;;;;;;0.10;0.10;;;;;;;13.42;100.00;99398.19;5092157;28;20195;-78
2023/07/07 02:59:38;;;;;;;0.10;0.10;;;;;;;13.50;100.00;99405.59;5095572;28;20205;-79
2023/07/07 03:02:07;;;;;;;0.10;0.10;;;;;;;13.28;100.00;99401.81;5095884;28;20191;-79
2023/07/07 03:04:36;;;;;;;0.10;0.10;;;;;;;13.20;100.00;99401.50;5097913;27;20294;-78
2023/07/07 03:07:04;;;;;;;0.10;0.10;;;;;;;13.14;100.00;99409.91;5089118;28;20207;-78
2023/07/07 03:09:33;;;;;;;0.10;0.10;;;;;;;13.06;100.00;99409.56;5090740;28;20234;-78
2023/07/07 03:12:02;;;;;;;0.10;0.10;;;;;;;12.93;100.00;99422.84;5100821;28;20211;-78
2023/07/07 03:14:31;;;;;;;0.10;0.10;;;;;;;12.69;100.00;99427.22;5092740;28;20223;-78
2023/07/07 03:17:00;;;;;;;0.10;0.10;;;;;;;12.69;100.00;99425.41;5092671;28;20200;-78
2023/07/07 03:19:29;;;;;;;0.10;0.10;;;;;;;12.64;100.00;99427.53;5095555;28;20282;-78
2023/07/07 03:21:57;;;;;;;0.10;0.10;;;;;;;12.59;100.00;99432.31;5085475;28;20248;-78
2023/07/07 03:24:27;;;;;;;0.10;0.10;;;;;;;12.72;100.00;99432.31;5087515;28;20187;-78
2023/07/07 03:26:56;;;;;;;0.10;0.10;;;;;;;12.66;100.00;99438.06;5086970;28;20196;-78
2023/07/07 03:29:25;;;;;;;0.10;0.10;;;;;;;12.80;100.00;99437.97;5096620;27;20226;-78
2023/07/07 03:31:54;;;;;;;0.10;0.10;;;;;;;12.71;100.00;99442.09;5092389;28;20200;-79
2023/07/07 03:34:25;;;;;;;0.10;0.10;;;;;;;12.83;100.00;99443.91;5094492;28;20261;-79
2023/07/07 03:36:54;;;;;;;0.10;0.10;;;;;;;12.83;100.00;99440.41;5091431;28;20654;-79
2023/07/07 03:39:22;;;;;;;0.10;0.10;;;;;;;12.87;100.00;99445.41;5091150;28;20203;-78
2023/07/07 03:41:50;;;;;;;0.10;0.10;;;;;;;12.81;100.00;99450.28;5090226;28;20279;-78
2023/07/07 03:44:20;;;;;;;0.10;0.10;;;;;;;12.76;100.00;99440.00;5093807;28;20196;-78
2023/07/07 03:46:50;;;;;;;0.10;0.10;;;;;;;12.83;100.00;99446.56;5088971;28;20191;-78
2023/07/07 03:49:20;;;;;;;0.10;0.10;;;;;;;12.76;100.00;99453.28;5090333;28;20203;-78
2023/07/07 03:51:49;;;;;;;0.10;0.10;;;;;;;12.87;100.00;99447.22;5086648;28;20205;-79
2023/07/07 03:54:17;;;;;;;0.10;0.10;;;;;;;12.84;100.00;99448.31;5085456;28;20219;-79
2023/07/07 03:56:45;;;;;;;0.10;0.10;;;;;;;12.84;100.00;99445.63;5094615;28;20195;-79
2023/07/07 03:59:13;;;;;;;0.10;0.10;;;;;;;12.80;100.00;99445.94;5089901;28;20658;-79
2023/07/07 04:01:42;;;;;;;0.10;0.10;;;;;;;12.86;100.00;99453.50;5084311;28;20283;-78
2023/07/07 04:04:12;;;;;;;0.10;0.10;;;;;;;12.75;100.00;99446.28;5091696;28;20203;-79
2023/07/07 04:06:40;;;;;;;0.10;0.10;;;;;;;12.76;100.00;99452.44;5088476;28;20195;-78
2023/07/07 04:09:09;;;;;;;0.10;0.10;;;;;;;12.73;100.00;99449.97;5089151;28;20191;-78
2023/07/07 04:11:37;;;;;;;0.10;0.10;;;;;;;12.73;100.00;99452.63;5093147;28;20240;-79
2023/07/07 04:14:06;;;;;;;0.10;0.10;;;;;;;12.75;100.00;99459.56;5094638;28;20194;-79
2023/07/07 04:16:35;;;;;;;0.10;0.10;;;;;;;12.69;100.00;99464.44;5091890;28;20212;-79
2023/07/07 04:19:03;;;;;;;0.10;0.10;;;;;;;12.76;100.00;99449.78;5089680;28;20173;-79
2023/07/07 04:21:34;;;;;;;0.10;0.10;;;;;;;12.89;100.00;99461.25;5093846;28;20217;-79
2023/07/07 04:24:03;;;;;;;0.10;0.10;;;;;;;12.91;100.00;99454.03;5092650;28;20219;-78
2023/07/07 04:26:32;;;;;;;0.10;0.10;;;;;;;12.97;100.00;99452.75;5096433;27;20279;-78
2023/07/07 04:29:01;;;;;;;0.10;0.10;;;;;;;13.07;100.00;99461.81;5094091;28;20215;-79
2023/07/07 04:31:30;;;;;;;0.10;0.10;;;;;;;13.03;100.00;99460.31;5085056;28;20184;-79
2023/07/07 04:33:59;;;;;;;0.10;0.10;;;;;;;13.15;100.00;99456.81;5092018;28;20199;-79
2023/07/07 04:36:27;;;;;;;0.10;0.10;;;;;;;13.10;100.00;99454.44;5091003;28;20222;-79
2023/07/07 04:38:58;;;;;;;0.10;0.10;;;;;;;13.19;100.00;99460.97;5089926;28;20184;-79
2023/07/07 04:41:27;;;;;;;0.10;0.10;;;;;;;13.21;100.00;99469.69;5094448;28;20192;-78
2023/07/07 04:43:59;;;;;;;0.10;0.10;;;;;;;13.29;100.00;99470.00;5092705;28;20198;-79
2023/07/07 04:46:29;;;;;;;0.10;0.10;;;;;;;13.46;100.00;99474.16;5090869;28;20191;-78
2023/07/07 04:48:57;;;;;;;0.10;0.10;;;;;;;13.55;100.00;99464.66;5096949;27;20256;-79
2023/07/07 04:51:25;;;;;;;0.10;0.10;;;;;;;13.62;100.00;99474.78;5095154;27;20287;-78
2023/07/07 04:53:54;;;;;;;0.10;0.10;;;;;;;13.73;100.00;99477.50;5091528;28;20210;-78
2023/07/07 04:56:24;;;;;;;0.10;0.10;;;;;;;13.77;100.00;99472.81;5092939;28;20222;-78
2023/07/07 04:58:54;;;;;;;0.10;0.10;;;;;;;13.85;100.00;99483.75;5093800;28;20249;-78
2023/07/07 05:01:26;;;;;;;0.10;0.10;;;;;;;13.88;100.00;99483.53;5090806;28;20203;-78
2023/07/07 05:03:58;;;;;;;0.10;0.10;;;;;;;13.96;100.00;99477.66;5090628;28;20199;-78
2023/07/07 05:06:32;;;;;;;0.10;0.10;;;;;;;13.99;100.00;99472.97;5092926;28;20188;-78
2023/07/07 05:09:01;;;;;;;0.10;0.10;;;;;;;14.08;100.00;99487.41;5084058;28;20207;-78
2023/07/07 05:11:33;;;;;;;0.10;0.10;;;;;;;14.21;100.00;99482.03;5084564;28;20227;-78
2023/07/07 05:14:02;;;;;;;0.10;0.10;;;;;;;14.36;100.00;99491.56;5092193;28;20205;-78
2023/07/07 05:16:33;;;;;;;0.10;0.10;;;;;;;14.38;100.00;99486.09;5092073;28;20218;-78
2023/07/07 05:19:01;;;;;;;0.10;0.10;;;;;;;14.51;100.00;99482.44;5092342;28;20191;-78
2023/07/07 05:21:30;;;;;;;0.10;0.10;;;;;;;14.62;100.00;99492.31;5083748;28;20225;-79
2023/07/07 05:23:59;;;;;;;0.10;0.10;;;;;;;14.76;100.00;99485.91;5089004;28;20203;-78
2023/07/07 05:26:28;;;;;;;0.10;0.10;;;;;;;14.89;100.00;99492.03;5054160;28;20192;-77
2023/07/07 05:29:01;;;;;;;0.10;0.10;;;;;;;14.89;100.00;99495.56;5090966;28;20220;-78
2023/07/07 05:31:30;;;;;;;0.10;0.10;;;;;;;14.93;100.00;99493.50;5089010;28;20286;-78
2023/07/07 05:33:58;;;;;;;0.10;0.10;;;;;;;15.19;100.00;99499.50;5086309;28;20248;-78
2023/07/07 05:36:27;;;;;;;0.10;0.10;;;;;;;15.26;100.00;99495.38;5052704;28;20392;-78
2023/07/07 05:38:56;;;;;;;0.10;0.10;;;;;;;15.25;100.00;99487.47;5084158;28;20195;-78
2023/07/07 05:41:26;;;;;;;0.10;0.10;;;;;;;15.38;100.00;99489.09;5090045;28;20223;-79
2023/07/07 05:43:55;;;;;;;0.10;0.10;;;;;;;15.46;100.00;99481.31;5090198;28;20263;-78
2023/07/07 05:46:27;;;;;;;0.10;0.10;;;;;;;15.56;100.00;99492.13;5087570;28;20241;-79
2023/07/07 05:48:57;;;;;;;0.10;0.10;;;;;;;15.63;100.00;99488.03;5091258;28;20184;-78
2023/07/07 05:51:25;;;;;;;0.10;0.10;;;;;;;15.87;100.00;99482.53;5088805;28;20199;-78
2023/07/07 05:53:54;;;;;;;0.10;0.10;;;;;;;15.98;100.00;99485.19;5089528;28;20227;-78
2023/07/07 05:56:25;;;;;;;0.10;0.10;;;;;;;16.19;100.00;99489.75;5092465;28;20215;-78
2023/07/07 05:58:55;;;;;;;0.10;0.10;;;;;;;16.34;100.00;99491.19;5089990;28;20198;-78
2023/07/07 06:01:25;;;;;;;0.10;0.10;;;;;;;16.39;100.00;99486.28;5096561;28;20361;-78
2023/07/07 06:03:55;;;;;;;0.10;0.10;;;;;;;16.50;100.00;99491.63;5094272;28;20226;-78
2023/07/07 06:06:23;;;;;;;0.10;0.10;;;;;;;16.69;100.00;99492.75;5096594;28;20195;-78
2023/07/07 06:08:52;;;;;;;0.10;0.10;;;;;;;16.84;100.00;99488.81;5092793;28;20207;-78
2023/07/07 06:11:23;;;;;;;0.00;0.00;;;;;;;16.91;100.00;99489.16;5090645;28;20271;-79
2023/07/07 06:13:51;;;;;;;0.10;0.10;;;;;;;17.05;100.00;99488.81;5098796;28;20244;-78
2023/07/07 06:16:21;;;;;;;0.10;0.10;;;;;;;17.16;100.00;99484.22;5095269;28;20224;-78
2023/07/07 06:18:56;;;;;;;0.10;0.10;;;;;;;17.30;100.00;99493.75;5092954;28;20715;-79
2023/07/07 06:21:24;;;;;;;0.10;0.10;;;;;;;17.43;100.00;99491.69;5002920;28;20199;-78
2023/07/07 06:23:53;;;;;;;0.00;0.00;;;;;;;17.69;100.00;99491.25;5052744;28;20233;-79
2023/07/07 06:26:22;;;;;;;0.00;0.00;;;;;;;17.62;100.00;99492.78;5044822;28;20243;-78
2023/07/07 06:28:51;;;;;;;0.10;0.10;;;;;;;17.75;100.00;99485.38;5049538;28;20265;-78
2023/07/07 06:31:22;;;;;;;0.10;0.10;;;;;;;17.99;100.00;99498.44;5047789;28;20287;-78
2023/07/07 06:33:51;;;;;;;0.03;0.03;;;;;;;18.05;100.00;99492.53;5048844;28;20216;-79
2023/07/07 06:36:24;;;;;;;0.10;0.10;;;;;;;18.21;100.00;99489.31;5046208;28;20213;-79
2023/07/07 06:38:53;;;;;;;0.10;0.10;;;;;;;18.39;100.00;99495.69;5048898;28;20189;-78
2023/07/07 06:41:23;;;;;;;0.10;0.10;;;;;;;18.56;100.00;99491.47;5045504;28;20235;-78
2023/07/07 06:43:53;;;;;;;0.10;0.10;;;;;;;18.62;100.00;99493.56;5044091;28;20259;-79
2023/07/07 06:46:25;;;;;;;0.07;0.07;;;;;;;18.91;100.00;99501.66;5075861;28;20206;-78
2023/07/07 06:48:54;;;;;;;0.10;0.10;;;;;;;19.00;100.00;99505.31;5097336;27;20192;-79
2023/07/07 06:51:25;;;;;;;0.10;0.10;;;;;;;19.19;100.00;99494.53;5095390;28;20225;-79
2023/07/07 06:53:54;;;;;;;0.10;0.10;;;;;;;19.25;100.00;99498.50;5092069;28;20192;-78
2023/07/07 06:56:22;;;;;;;0.10;0.10;;;;;;;19.28;100.00;99498.19;5092067;28;20223;-78
2023/07/07 06:58:50;;;;;;;0.10;0.10;;;;;;;19.57;100.00;99506.19;5092172;28;20184;-78
2023/07/07 07:01:19;;;;;;;0.10;0.10;;;;;;;19.72;100.00;99496.69;5096382;28;20274;-78
2023/07/07 07:03:48;;;;;;;0.10;0.10;;;;;;;19.83;100.00;99498.31;5095526;28;20203;-79
2023/07/07 07:06:18;;;;;;;0.10;0.10;;;;;;;19.71;99.77;99495.84;5090136;28;20222;-78
2023/07/07 07:08:48;;;;;;;0.00;0.00;;;;;;;19.86;100.00;99493.47;5093599;28;20249;-78
2023/07/07 07:11:16;;;;;;;0.10;0.10;;;;;;;20.02;100.00;99488.31;5095543;28;20412;-79
2023/07/07 07:13:45;;;;;;;0.10;0.10;;;;;;;20.05;100.00;99489.00;5095323;28;20283;-78
2023/07/07 07:16:14;;;;;;;0.10;0.10;;;;;;;20.28;98.64;99485.75;5090795;28;20216;-78
2023/07/07 07:18:42;;;;;;;0.10;0.10;;;;;;;20.50;97.51;99489.03;5090728;28;20223;-79
2023/07/07 07:21:10;;;;;;;0.00;0.00;;;;;;;20.73;94.64;99492.94;5095427;28;20206;-78
2023/07/07 07:23:39;;;;;;;0.10;0.10;;;;;;;20.80;89.82;99494.00;5086507;28;20207;-78
2023/07/07 07:26:09;;;;;;;0.00;0.00;;;;;;;20.95;87.51;99493.47;5091812;28;20192;-79
2023/07/07 07:28:38;;;;;;;0.00;0.00;;;;;;;21.09;84.98;99495.59;5093340;28;20254;-79
2023/07/07 07:31:07;;;;;;;0.00;0.00;;;;;;;20.90;84.75;99495.78;5090752;28;20183;-79
2023/07/07 07:33:35;;;;;;;0.10;0.10;;;;;;;21.05;83.16;99495.06;5095334;28;20188;-79
2023/07/07 07:36:03;;;;;;;0.10;0.10;;;;;;;21.12;80.92;99487.19;5093687;28;20196;-79
2023/07/07 07:38:32;;;;;;;0.10;0.10;;;;;;;21.48;79.95;99487.97;5083114;28;20274;-78
2023/07/07 07:41:01;;;;;;;0.00;0.00;;;;;;;21.47;75.88;99488.97;5087085;28;20184;-78
2023/07/07 07:43:31;;;;;;;0.08;0.08;;;;;;;21.52;75.08;99492.03;5082915;28;20249;-79
2023/07/07 07:45:59;;;;;;;0.10;0.10;;;;;;;21.55;75.39;99491.72;5089026;28;20244;-78
2023/07/07 07:48:28;;;;;;;0.10;0.10;;;;;;;21.77;72.85;99490.31;5093454;28;20200;-78
2023/07/07 07:51:00;;;;;;;0.10;0.10;;;;;;;21.97;71.58;99486.34;5091493;28;20202;-79
2023/07/07 07:53:29;;;;;;;0.00;0.00;;;;;;;22.16;69.64;99482.56;5088678;28;20200;-79
2023/07/07 07:55:58;;;;;;;0.10;0.10;;;;;;;22.21;68.15;99482.06;5086469;28;20203;-79
2023/07/07 07:58:26;;;;;;;0.10;0.10;;;;;;;22.35;67.25;99480.56;5093365;28;20220;-79
2023/07/07 08:01:04;;;;;;;0.00;0.00;;;;;;;22.25;65.80;99489.66;5089041;28;20203;-78
2023/07/07 08:03:33;;;;;;;0.10;0.10;;;;;;;22.64;62.15;99482.81;5092943;28;20286;-79
2023/07/07 08:06:01;;;;;;;0.10;0.10;;;;;;;22.84;59.96;99481.50;5086475;28;20252;-78
2023/07/07 08:08:30;;;;;;;0.10;0.10;;;;;;;23.05;58.34;99475.56;5084756;28;20278;-79
2023/07/07 08:10:58;;;;;;;0.00;0.00;;;;;;;23.13;55.11;99472.88;5090700;28;20234;-78
2023/07/07 08:13:37;;;;;;;0.00;0.00;;;;;;;23.39;51.94;99481.63;5092212;28;20203;-78
2023/07/07 08:16:10;;;;;;;0.00;0.00;;;;;;;23.70;51.59;99473.59;5090647;28;20238;-78
2023/07/07 08:18:39;;;;;;;0.05;0.05;;;;;;;23.45;49.70;99480.09;5092097;28;20220;-78
2023/07/07 08:21:08;;;;;;;0.10;0.10;;;;;;;23.63;50.61;99477.19;5082177;28;20195;-79
2023/07/07 08:23:36;;;;;;;0.00;0.00;;;;;;;24.06;48.72;99480.41;5086660;28;20219;-78
2023/07/07 08:26:04;;;;;;;0.00;0.00;;;;;;;23.94;49.23;99479.97;5094507;28;20203;-78
2023/07/07 08:28:36;;;;;;;0.10;0.10;;;;;;;23.89;49.47;99469.66;5092417;28;20227;-78
2023/07/07 08:31:23;;;;;;;0.10;0.10;;;;;;;24.17;47.13;99474.59;5090356;28;20203;-79
2023/07/07 08:33:52;;;;;;;0.00;0.00;;;;;;;24.36;47.20;99476.03;5071860;28;20200;-78
2023/07/07 08:36:28;;;;;;;0.00;0.00;;;;;;;24.67;42.77;99474.13;5073245;28;20275;-81
2023/07/07 08:39:01;;;;;;;0.10;0.10;;;;;;;24.86;40.12;99477.38;5086194;28;20212;-78
2023/07/07 08:41:30;;;;;;;0.00;0.00;;;;;;;24.98;39.80;99481.31;5089277;28;20269;-78
2023/07/07 08:43:59;;;;;;;0.05;0.05;;;;;;;24.85;40.06;99484.66;5082654;28;20260;-78
2023/07/07 08:46:40;;;;;;;0.00;0.00;;;;;;;25.07;39.26;99491.94;5084402;28;20357;-78
2023/07/07 08:49:12;;;;;;;0.00;0.00;;;;;;;25.25;40.20;99479.91;5051936;28;20183;-79
2023/07/07 08:51:48;;;;;;;0.10;0.10;;;;;;;25.58;40.76;99480.44;5086799;28;20216;-78
2023/07/07 08:54:22;;;;;;;0.00;0.00;;;;;;;25.47;41.69;99481.72;5057144;28;20187;-79
2023/07/07 08:56:55;;;;;;;0.00;0.00;;;;;;;25.27;41.58;99494.97;5087572;28;20278;-78
2023/07/07 08:59:49;;;;;;;0.00;0.00;;;;;;;25.61;38.09;99493.63;5093636;28;20210;-79
2023/07/07 09:02:47;;;;;;;0.00;0.00;;;;;;;25.83;37.56;99489.16;5101358;28;20194;-78
2023/07/07 09:05:24;;;;;;;0.00;0.00;;;;;;;25.92;38.12;99486.13;5101843;28;20194;-79
2023/07/07 09:08:07;;;;;;;0.00;0.00;;;;;;;25.75;38.47;99486.53;5105871;28;20191;-78
2023/07/07 09:10:49;;;;;;;0.08;0.08;;;;;;;26.16;37.75;99478.72;5071722;28;20196;-78
2023/07/07 09:13:23;;;;;;;0.00;0.00;;;;;;;26.22;37.32;99481.50;5068023;28;20190;-78
2023/07/07 09:16:09;;;;;;;0.00;0.00;;;;;;;26.20;37.56;99474.59;5070986;28;20196;-78
2023/07/07 09:18:47;;;;;;;0.00;0.00;;;;;;;26.41;37.62;99468.38;5068423;28;20264;-78
2023/07/07 09:21:26;;;;;;;0.00;0.00;;;;;;;26.17;37.81;99473.09;5018208;28;20342;-78
2023/07/07 09:24:01;;;;;;;0.00;0.00;;;;;;;26.68;37.17;99472.19;5067782;28;20267;-78
2023/07/07 09:26:33;;;;;;;0.00;0.00;;;;;;;26.87;36.74;99465.28;5062677;28;20314;-78
2023/07/07 09:29:08;;;;;;;0.00;0.00;;;;;;;27.00;36.58;99477.09;5067973;28;20321;-78
2023/07/07 09:31:42;;;;;;;0.00;0.00;;;;;;;27.14;36.08;99471.81;5065069;28;20200;-78
2023/07/07 09:34:16;;;;;;;0.00;0.00;;;;;;;27.32;35.43;99474.88;5065507;28;20211;-78
2023/07/07 09:36:51;;;;;;;0.00;0.00;;;;;;;27.37;35.50;99472.38;5024477;28;20205;-78
2023/07/07 09:39:46;;;;;;;0.00;0.00;;;;;;;27.62;35.01;99483.66;5024417;28;20221;-79
2023/07/07 09:42:37;;;;;;;0.00;0.00;;;;;;;27.19;35.67;99478.31;5070794;28;20274;-78
2023/07/07 09:45:27;;;;;;;0.10;0.10;;;;;;;27.15;36.06;99471.59;5035494;28;20229;-79
2023/07/07 09:48:09;;;;;;;0.00;0.00;;;;;;;27.29;35.20;99467.94;5085751;28;20192;-79
2023/07/07 09:50:45;;;;;;;0.00;0.00;;;;;;;26.73;36.77;99469.72;5086801;28;20200;-79
2023/07/07 09:53:20;;;;;;;0.00;0.00;;;;;;;26.36;37.28;99466.22;5096618;28;20197;-79
2023/07/07 09:55:56;;;;;;;0.00;0.00;;;;;;;26.83;36.21;99451.25;5108435;28;20282;-79
2023/07/07 09:58:34;;;;;;;0.00;0.00;;;;;;;27.01;36.68;99462.44;5109559;28;20236;-79
2023/07/07 10:01:04;;;;;;;0.00;0.00;;;;;;;27.45;35.95;99460.50;5105918;28;20665;-79
2023/07/07 10:03:36;;;;;;;0.10;0.10;;;;;;;27.25;35.61;99455.78;5104773;28;20307;-79
2023/07/07 10:06:15;;;;;;;0.00;0.00;;;;;;;27.68;35.07;99461.09;5113061;28;20210;-81
2023/07/07 10:08:44;;;;;;;0.00;0.00;;;;;;;27.83;33.29;99453.63;5111965;28;20191;-79
2023/07/07 10:11:20;;;;;;;0.00;0.00;;;;;;;28.04;32.90;99449.97;5107780;28;20187;-80
2023/07/07 10:13:57;;;;;;;0.00;0.00;;;;;;;27.82;34.30;99457.41;5033863;28;20222;-78
2023/07/07 10:16:37;;;;;;;0.10;0.10;;;;;;;27.67;34.21;99443.91;5111737;28;20199;-78
2023/07/07 10:19:08;;;;;;;0.00;0.00;;;;;;;28.23;33.35;99449.19;5115121;27;20214;-78
2023/07/07 10:21:38;;;;;;;0.00;0.00;;;;;;;28.27;34.34;99457.78;5109189;28;20347;-78
2023/07/07 10:24:06;;;;;;;0.03;0.03;;;;;;;28.37;32.93;99460.97;5106231;28;20206;-78
2023/07/07 10:26:38;;;;;;;0.00;0.00;;;;;;;28.67;32.47;99452.47;5107028;28;20278;-78
2023/07/07 10:29:13;;;;;;;0.00;0.00;;;;;;;28.42;31.60;99453.03;5112743;28;20219;-78
2023/07/07 10:31:43;;;;;;;0.00;0.00;;;;;;;28.56;31.95;99447.59;5112998;28;20256;-78
2023/07/07 10:34:23;;;;;;;0.00;0.00;;;;;;;28.52;32.53;99439.84;5110935;28;20180;-79
2023/07/07 10:36:56;;;;;;;0.00;0.00;;;;;;;29.15;31.82;99438.66;5115269;27;20187;-79
2023/07/07 10:39:25;;;;;;;0.00;0.00;;;;;;;29.60;31.49;99440.47;5111643;28;20218;-78
2023/07/07 10:41:53;;;;;;;0.10;0.10;;;;;;;29.97;30.57;99437.19;5109755;28;20205;-79
2023/07/07 10:44:24;;;;;;;0.10;0.10;;;;;;;29.06;31.25;99438.88;5115410;28;20199;-81
2023/07/07 10:46:53;;;;;;;0.00;0.00;;;;;;;29.65;30.57;99439.84;5116375;28;20195;-78
2023/07/07 10:49:26;;;;;;;0.00;0.00;;;;;;;29.29;29.69;99432.97;5116382;28;20656;-78
2023/07/07 10:52:19;;;;;;;0.00;0.00;;;;;;;29.26;30.03;99421.63;5111198;28;20199;-80
2023/07/07 10:55:18;;;;;;;0.00;0.00;;;;;;;29.99;29.08;99419.53;5116118;28;20240;-79
2023/07/07 10:57:59;;;;;;;0.00;0.00;;;;;;;30.04;29.38;99421.63;5106042;28;20201;-79
2023/07/07 11:00:43;;;;;;;0.00;0.00;;;;;;;30.13;29.26;99418.44;5109594;28;20199;-79
2023/07/07 11:03:45;;;;;;;0.00;0.00;;;;;;;31.06;28.57;99421.34;5115918;28;20714;-78
2023/07/07 11:06:26;;;;;;;0.00;0.00;;;;;;;30.92;28.54;99417.09;5111998;28;20255;-78
2023/07/07 11:09:06;;;;;;;0.00;0.00;;;;;;;29.47;28.96;99415.91;5108744;28;20187;-80
2023/07/07 11:11:47;;;;;;;0.00;0.00;;;;;;;28.92;29.81;99406.34;5113079;28;20195;-78
2023/07/07 11:14:30;;;;;;;0.00;0.00;;;;;;;29.69;29.66;99402.00;5107134;28;20347;-79
2023/07/07 11:17:11;;;;;;;0.00;0.00;;;;;;;30.62;29.08;99396.88;5109395;28;20205;-80
2023/07/07 11:19:59;;;;;;;0.00;0.00;;;;;;;30.63;28.55;99401.28;5109047;28;20226;-80
2023/07/07 11:22:46;;;;;;;0.00;0.00;;;;;;;30.55;29.92;99399.66;5116606;27;20198;-81
2023/07/07 11:25:22;;;;;;;0.00;0.00;;;;;;;30.53;29.62;99400.94;5115683;28;20191;-78
2023/07/07 11:28:03;;;;;;;0.00;0.00;;;;;;;30.39;30.11;99395.56;5113828;28;20293;-81
2023/07/07 11:30:42;;;;;;;0.00;0.00;;;;;;;30.73;29.79;99407.13;5115759;28;20225;-81
2023/07/07 11:33:26;;;;;;;0.00;0.00;;;;;;;30.87;28.83;99396.91;5115732;28;20225;-81
2023/07/07 11:36:15;;;;;;;0.00;0.00;;;;;;;30.46;29.13;99388.16;5116159;28;20207;-81
2023/07/07 11:39:02;;;;;;;0.00;0.00;;;;;;;31.44;28.14;99383.94;5069553;28;20208;-80
2023/07/07 11:41:47;;;;;;;0.00;0.00;;;;;;;31.56;28.03;99385.72;5067833;28;20207;-81
2023/07/07 11:44:33;;;;;;;0.00;0.00;;;;;;;30.80;28.39;99388.78;5072622;28;20275;-78
2023/07/07 11:47:16;;;;;;;0.00;0.00;;;;;;;29.89;29.47;99386.38;5062757;28;20193;-81
2023/07/07 11:50:05;;;;;;;0.00;0.00;;;;;;;30.00;29.63;99382.09;5069922;28;20262;-80
2023/07/07 11:52:54;;;;;;;0.00;0.00;;;;;;;30.56;29.06;99379.47;5068637;28;20202;-81
2023/07/07 11:55:36;;;;;;;0.00;0.00;;;;;;;30.00;29.73;99382.94;5069417;28;20196;-81